createdAt,value
2023-04-03T00:04:31.417Z,7.25
2023-04-03T00:10:36.552Z,8.13
2023-04-03T00:16:40.069Z,8.52
2023-04-03T00:22:43.753Z,7.88
2023-04-03T00:28:48.684Z,7.78
2023-04-03T00:34:52.260Z,8.07
2023-04-03T00:40:55.990Z,7.97
2023-04-03T00:47:00.863Z,8.10
2023-04-03T00:53:04.743Z,8.40
2023-04-03T00:59:11.276Z,7.28
2023-04-03T01:05:20.699Z,7.97
2023-04-03T01:11:24.142Z,7.55
2023-04-03T01:17:31.772Z,7.30
2023-04-03T01:23:49.476Z,6.95
2023-04-03T01:29:53.068Z,7.03
2023-04-03T01:35:57.880Z,6.82
2023-04-03T01:42:01.355Z,6.80
2023-04-03T01:48:04.974Z,7.28
2023-04-03T01:54:09.734Z,7.90
2023-04-03T02:00:13.879Z,8.23
2023-04-03T02:06:17.321Z,8.07
2023-04-03T02:12:22.171Z,7.97
2023-04-03T02:18:25.834Z,8.25
2023-04-03T02:24:29.692Z,7.45
2023-04-03T02:30:35.237Z,7.07
2023-04-03T02:36:39.146Z,6.95
2023-04-03T02:42:42.561Z,6.95
2023-04-03T02:48:47.396Z,6.57
2023-04-03T02:54:50.901Z,7.40
2023-04-03T03:00:54.415Z,7.00
2023-04-03T03:06:59.278Z,7.65
2023-04-03T03:13:03.163Z,6.47
2023-04-03T03:19:07.833Z,6.45
2023-04-03T03:25:12.902Z,6.55
2023-04-03T03:31:16.540Z,7.38
2023-04-03T03:37:20.141Z,6.97
2023-04-03T03:43:25.117Z,7.57
2023-04-03T03:49:28.545Z,7.60
2023-04-03T03:55:31.946Z,7.80
2023-04-03T04:01:37.256Z,8.05
2023-04-03T04:07:40.702Z,8.35
2023-04-03T04:13:44.248Z,8.18
2023-04-03T04:19:49.005Z,7.50
2023-04-03T04:25:52.918Z,8.90
2023-04-03T04:31:56.299Z,8.40
2023-04-03T04:38:01.702Z,8.20
2023-04-03T04:44:05.505Z,8.55
2023-04-03T04:50:09.310Z,9.40
2023-04-03T04:56:14.163Z,9.45
2023-04-03T05:02:17.907Z,9.90
2023-04-03T05:08:21.377Z,9.18
2023-04-03T05:14:26.163Z,9.20
2023-04-03T05:20:29.809Z,8.32
2023-04-03T05:26:33.542Z,8.73
2023-04-03T05:32:38.390Z,8.38
2023-04-03T05:38:42.158Z,7.75
2023-04-03T05:44:47.852Z,7.78
2023-04-03T05:50:54.721Z,8.15
2023-04-03T05:57:00.805Z,7.70
2023-04-03T06:03:04.366Z,7.20
2023-04-03T06:09:09.417Z,8.32
2023-04-03T06:15:13.027Z,9.23
2023-04-03T06:21:16.577Z,10.20
2023-04-03T06:27:21.600Z,9.00
2023-04-03T06:33:25.013Z,8.63
2023-04-03T06:39:28.970Z,7.40
2023-04-03T06:45:33.816Z,6.35
2023-04-03T06:51:37.987Z,6.95
2023-04-03T06:57:41.563Z,7.18
2023-04-03T07:03:47.345Z,6.25
2023-04-03T07:09:51.076Z,5.57
2023-04-03T07:15:54.971Z,5.65
2023-04-03T07:21:59.858Z,5.18
2023-04-03T07:28:04.745Z,5.20
2023-04-03T07:34:08.157Z,4.90
2023-04-03T07:40:13.821Z,4.63
2023-04-03T07:46:18.608Z,4.43
2023-04-03T07:52:22.052Z,4.63
2023-04-03T07:58:27.080Z,4.30
2023-04-03T08:04:31.704Z,3.85
2023-04-03T08:10:36.033Z,4.68
2023-04-03T08:16:41.090Z,3.78
2023-04-03T08:22:44.694Z,4.43
2023-04-03T08:28:48.325Z,3.10
2023-04-03T08:34:53.250Z,3.90
2023-04-03T08:41:04.924Z,4.38
2023-04-03T08:47:14.699Z,4.68
2023-04-03T08:53:21.113Z,5.22
2023-04-03T08:59:28.191Z,5.68
2023-04-03T09:05:40.015Z,6.20
2023-04-03T09:11:49.524Z,6.00
2023-04-03T09:17:58.009Z,6.35
2023-04-03T09:24:02.621Z,6.38
2023-04-03T09:30:08.282Z,7.18
2023-04-03T09:36:12.192Z,6.80
2023-04-03T09:42:19.806Z,5.40
2023-04-03T09:48:25.916Z,5.05
2023-04-03T09:54:34.455Z,5.55
2023-04-03T10:00:39.747Z,6.13
2023-04-03T10:06:47.865Z,5.97
2023-04-03T10:12:51.372Z,4.88
2023-04-03T10:18:59.171Z,3.83
2023-04-03T10:25:07.492Z,5.55
2023-04-03T10:31:16.640Z,6.05
2023-04-03T10:37:23.216Z,5.15
2023-04-03T10:43:32.293Z,4.43
2023-04-03T10:49:50.010Z,3.15
2023-04-03T10:56:04.633Z,3.47
2023-04-03T11:02:16.446Z,2.85
2023-04-03T11:08:27.513Z,2.97
2023-04-03T11:14:35.789Z,3.70
2023-04-03T11:20:41.932Z,3.47
2023-04-03T11:26:46.347Z,2.67
2023-04-03T11:33:04.812Z,2.78
2023-04-03T11:39:18.603Z,2.78
2023-04-03T11:45:28.742Z,2.55
2023-04-03T11:51:42.586Z,2.75
2023-04-03T11:58:04.854Z,2.38
2023-04-03T12:04:15.162Z,2.50
2023-04-03T12:10:31.823Z,1.70
2023-04-03T12:16:45.927Z,2.35
2023-04-03T12:23:09.832Z,2.00
2023-04-03T12:29:20.784Z,1.80
2023-04-03T12:35:27.755Z,1.60
2023-04-03T12:41:36.995Z,1.70
2023-04-03T12:47:41.099Z,1.63
2023-04-03T12:53:47.158Z,1.70
2023-04-03T12:59:50.947Z,1.75
2023-04-03T13:05:54.536Z,1.88
2023-04-03T13:12:00.480Z,1.48
2023-04-03T13:18:03.925Z,2.10
2023-04-03T13:24:15.536Z,1.75
2023-04-03T13:30:27.575Z,2.40
2023-04-03T13:36:33.581Z,2.10
2023-04-03T13:42:38.176Z,1.85
2023-04-03T13:48:44.670Z,1.85
2023-04-03T13:54:49.864Z,1.92
2023-04-03T14:00:54.427Z,1.70
2023-04-03T14:06:59.518Z,1.70
2023-04-03T14:13:03.188Z,2.00
2023-04-03T14:19:07.404Z,1.83
2023-04-03T14:25:12.308Z,2.05
2023-04-03T14:31:16.168Z,1.90
2023-04-03T14:37:21.237Z,1.85
2023-04-03T14:43:27.449Z,2.00
2023-04-03T14:49:31.484Z,1.52
2023-04-03T14:55:36.168Z,2.13
2023-04-03T15:01:41.062Z,1.77
2023-04-03T15:07:45.524Z,1.90
2023-04-03T15:13:48.967Z,1.95
2023-04-03T15:19:53.760Z,1.40
2023-04-03T15:25:57.620Z,1.70
2023-04-03T15:32:01.224Z,1.65
2023-04-03T15:38:06.143Z,1.80
2023-04-03T15:44:09.545Z,1.33
2023-04-03T15:50:13.976Z,1.50
2023-04-03T15:56:18.822Z,1.92
2023-04-03T16:02:22.397Z,1.67
2023-04-03T16:08:26.144Z,1.95
2023-04-03T16:14:31.586Z,2.22
2023-04-03T16:20:35.102Z,2.03
2023-04-03T16:26:38.583Z,2.05
2023-04-03T16:32:43.647Z,2.00
2023-04-03T16:38:47.191Z,1.70
2023-04-03T16:44:50.659Z,2.00
2023-04-03T16:50:55.680Z,2.20
2023-04-03T16:56:59.296Z,2.05
2023-04-03T17:03:03.098Z,1.98
2023-04-03T17:09:08.424Z,1.55
2023-04-03T17:15:12.198Z,2.00
2023-04-03T17:21:16.194Z,1.60
2023-04-03T17:27:20.965Z,1.90
2023-04-03T17:33:24.673Z,1.48
2023-04-03T17:39:28.367Z,1.48
2023-04-03T17:45:33.350Z,1.38
2023-04-03T17:51:36.838Z,1.13
2023-04-03T17:57:40.303Z,1.60
2023-04-03T18:03:46.083Z,1.27
2023-04-03T18:09:50.199Z,1.50
2023-04-03T18:15:53.625Z,1.83
2023-04-03T18:21:59.540Z,1.13
2023-04-03T18:28:06.502Z,1.35
2023-04-03T18:34:09.975Z,1.63
2023-04-03T18:40:15.404Z,1.50
2023-04-03T18:46:19.821Z,1.88
2023-04-03T18:52:25.308Z,1.45
2023-04-03T18:58:30.188Z,1.60
2023-04-03T19:04:33.756Z,2.30
2023-04-03T19:10:37.253Z,2.25
2023-04-03T19:16:42.101Z,2.35
2023-04-03T19:22:45.601Z,2.47
2023-04-03T19:28:50.701Z,2.00
2023-04-03T19:34:55.510Z,2.58
2023-04-03T19:40:58.977Z,2.50
2023-04-03T19:47:03.078Z,2.67
2023-04-03T19:53:11.252Z,2.97
2023-04-03T19:59:15.178Z,2.70
2023-04-03T20:05:18.849Z,2.85
2023-04-03T20:11:23.942Z,2.55
2023-04-03T20:17:27.813Z,3.00
2023-04-03T20:23:31.780Z,3.22
2023-04-03T20:29:38.513Z,2.72
2023-04-03T20:35:41.955Z,2.90
2023-04-03T20:41:45.428Z,3.03
2023-04-03T20:47:52.013Z,2.70
2023-04-03T20:53:55.523Z,2.95
2023-04-03T20:59:58.931Z,2.45
2023-04-03T21:06:03.949Z,3.15
2023-04-03T21:12:26.130Z,2.90
2023-04-03T21:18:48.287Z,2.50
2023-04-03T21:24:53.090Z,2.90
2023-04-03T21:30:56.507Z,2.67
2023-04-03T21:37:03.093Z,2.60
2023-04-03T21:43:08.045Z,2.63
2023-04-03T21:49:11.599Z,2.80
2023-04-03T21:55:15.746Z,2.63
2023-04-03T22:01:21.170Z,2.65
2023-04-03T22:07:24.671Z,2.45
2023-04-03T22:13:28.079Z,2.50
2023-04-03T22:19:32.858Z,2.72
2023-04-03T22:25:36.364Z,2.50
2023-04-03T22:31:41.736Z,2.95
2023-04-03T22:37:47.114Z,3.05
2023-04-03T22:43:50.800Z,2.40
2023-04-03T22:49:54.222Z,2.30
2023-04-03T22:55:59.729Z,2.35
2023-04-03T23:02:03.255Z,2.10
2023-04-03T23:08:07.474Z,2.58
2023-04-03T23:14:12.252Z,2.40
2023-04-03T23:20:15.664Z,2.10
2023-04-03T23:26:19.162Z,2.40
2023-04-03T23:32:24.206Z,2.50
2023-04-03T23:38:27.831Z,2.10
2023-04-03T23:44:31.836Z,2.45
2023-04-03T23:50:37.374Z,2.38
2023-04-03T23:56:41.042Z,2.40
